Time;durP1;ratioP1;P1;durP2;ratioP2;P2;SDS_P1;SDS_P2;PMS_P1;PMS_P2;Temp;Humidity;BMP_temperature;BMP_pressure;BME280_temperature;BME280_humidity;BME280_pressure;Samples;Min_cycle;Max_cycle;Signal;HPM_P1;HPM_P2
2022/02/16 00:01:56;;;;;;;;;;;;;;;4.13;64.90;97659.06;4986468;28;19944;-73
2022/02/16 00:04:25;;;;;;;;;;;;;;;4.13;64.35;97652.91;4990087;28;19935;-73
2022/02/16 00:06:54;;;;;;;;;;;;;;;4.16;64.54;97655.06;4991610;28;19948;-73
2022/02/16 00:09:25;;;;;;;;;;;;;;;4.25;64.06;97655.25;4992327;28;20013;-73
2022/02/16 00:11:56;;;;;;;;;;;;;;;4.00;64.24;97651.63;5010951;28;19926;-74
2022/02/16 00:14:28;;;;;;;;;;;;;;;3.96;64.98;97647.06;4997141;28;20271;-72
2022/02/16 00:16:57;;;;;;;;;;;;;;;3.95;64.92;97648.94;4968718;28;19933;-74
2022/02/16 00:19:26;;;;;;;;;;;;;;;4.05;64.33;97629.25;4992426;28;20067;-74
2022/02/16 00:21:55;;;;;;;;;;;;;;;3.94;64.66;97631.19;5010633;28;19972;-73
2022/02/16 00:24:23;;;;;;;;;;;;;;;4.02;63.67;97630.63;4975124;28;19925;-72
2022/02/16 00:26:52;;;;;;;;;;;;;;;3.98;64.23;97634.13;5008382;28;20033;-73
2022/02/16 00:32:14;;;;;;;;;;;;;;;3.83;65.48;97617.00;5035891;28;19931;-72
2022/02/16 00:34:43;;;;;;;;;;;;;;;3.83;65.54;97621.56;5025000;28;19925;-73
2022/02/16 00:37:11;;;;;;;;;;;;;;;3.68;66.23;97619.75;5012800;28;20475;-73
2022/02/16 00:39:39;;;;;;;;;;;;;;;3.68;66.16;97620.56;5043990;28;19960;-73
2022/02/16 00:42:08;;;;;;;;;;;;;;;3.74;65.63;97612.47;5026478;28;19940;-73
2022/02/16 00:44:39;;;;;;;;;;;;;;;3.70;66.07;97609.53;5028241;28;20019;-73
2022/02/16 00:47:08;;;;;;;;;;;;;;;3.84;65.12;97607.06;5005895;28;20015;-72
2022/02/16 00:49:37;;;;;;;;;;;;;;;3.78;65.27;97597.41;5023668;28;20379;-73
2022/02/16 00:52:08;;;;;;;;;;;;;;;3.86;65.62;97604.91;5007034;28;19995;-73
2022/02/16 00:54:37;;;;;;;;;;;;;;;3.90;65.64;97605.97;5039010;28;19925;-73
2022/02/16 00:57:07;;;;;;;;;;;;;;;3.85;65.40;97612.16;5006894;28;20036;-73
2022/02/16 01:00:02;;;;;;;;;;;;;;;3.85;65.19;97603.31;5027644;28;19933;-73
2022/02/16 01:02:42;;;;;;;;;;;;;;;3.87;64.94;97601.94;5038558;28;19933;-73
2022/02/16 01:05:11;;;;;;;;;;;;;;;3.94;64.91;97602.47;5015464;28;20016;-72
2022/02/16 01:07:41;;;;;;;;;;;;;;;3.91;65.46;97610.25;5025843;28;19971;-72
2022/02/16 01:10:12;;;;;;;;;;;;;;;4.03;64.48;97597.28;5012159;28;20379;-74
2022/02/16 01:12:46;;;;;;;;;;;;;;;3.87;65.59;97596.56;5040870;28;19932;-73
2022/02/16 01:15:16;;;;;;;;;;;;;;;3.79;65.50;97586.41;5017657;28;19933;-73
2022/02/16 01:17:47;;;;;;;;;;;;;;;3.84;65.51;97591.75;5024827;28;19929;-73
2022/02/16 01:20:24;;;;;;;;;;;;;;;4.02;64.32;97592.19;5010933;28;19952;-73
2022/02/16 01:22:59;;;;;;;;;;;;;;;3.97;64.45;97582.28;5009197;28;20028;-75
2022/02/16 01:25:30;;;;;;;;;;;;;;;4.01;64.57;97582.53;5003446;28;19961;-73
2022/02/16 01:28:06;;;;;;;;;;;;;;;4.14;64.10;97576.53;4995517;28;19940;-73
2022/02/16 01:30:44;;;;;;;;;;;;;;;4.15;63.32;97573.56;5021187;28;19991;-74
2022/02/16 01:33:18;;;;;;;;;;;;;;;4.04;64.42;97574.69;5011266;28;19929;-73
2022/02/16 01:35:51;;;;;;;;;;;;;;;3.87;64.93;97577.75;5002798;28;20381;-73
2022/02/16 01:38:21;;;;;;;;;;;;;;;3.84;64.97;97564.88;5014204;28;20022;-73
2022/02/16 01:41:04;;;;;;;;;;;;;;;3.86;65.26;97572.66;5006166;28;19932;-73
2022/02/16 01:43:34;;;;;;;;;;;;;;;4.03;64.29;97567.72;5010969;28;19929;-73
2022/02/16 01:46:06;;;;;;;;;;;;;;;4.13;63.66;97558.81;5002083;28;19960;-73
2022/02/16 01:48:36;;;;;;;;;;;;;;;4.19;62.42;97563.88;5009072;28;19925;-74
2022/02/16 01:51:05;;;;;;;;;;;;;;;4.09;62.90;97550.47;5024238;28;19925;-73
2022/02/16 01:53:40;;;;;;;;;;;;;;;3.97;64.11;97552.72;5009080;28;19995;-73
2022/02/16 01:56:13;;;;;;;;;;;;;;;4.16;63.17;97545.63;5020392;28;19925;-73
2022/02/16 01:58:45;;;;;;;;;;;;;;;4.11;63.53;97534.91;5024651;28;20362;-73
2022/02/16 02:01:14;;;;;;;;;;;;;;;4.10;63.42;97527.09;5022084;28;19929;-74
2022/02/16 02:04:07;;;;;;;;;;;;;;;4.14;62.73;97526.25;5025839;28;20010;-73
2022/02/16 02:06:36;;;;;;;;;;;;;;;4.15;63.72;97530.53;5008652;28;19925;-73
2022/02/16 02:09:34;;;;;;;;;;;;;;;4.08;63.08;97519.31;5004438;28;19925;-74
2022/02/16 02:12:04;;;;;;;;;;;;;;;4.08;63.66;97519.31;5021027;28;19985;-73
2022/02/16 02:14:37;;;;;;;;;;;;;;;4.16;63.04;97510.66;5008918;28;19952;-73
2022/02/16 02:17:10;;;;;;;;;;;;;;;4.13;63.92;97496.97;5022175;28;19956;-73
2022/02/16 02:19:42;;;;;;;;;;;;;;;4.09;63.69;97488.66;5003214;28;19976;-73
2022/02/16 02:22:12;;;;;;;;;;;;;;;4.17;63.19;97496.13;5012570;28;19976;-73
2022/02/16 02:25:08;;;;;;;;;;;;;;;4.14;63.94;97483.25;5019980;28;19925;-73
2022/02/16 02:27:41;;;;;;;;;;;;;;;4.20;63.34;97484.81;5006827;28;19925;-73
2022/02/16 02:30:12;;;;;;;;;;;;;;;4.16;63.27;97481.09;5004442;28;19957;-74
2022/02/16 02:32:40;;;;;;;;;;;;;;;4.21;62.90;97472.19;5026133;28;20044;-73
2022/02/16 02:35:10;;;;;;;;;;;;;;;4.26;62.92;97480.22;5005587;28;19925;-73
2022/02/16 02:37:41;;;;;;;;;;;;;;;4.33;62.81;97469.94;5026067;28;20027;-73
2022/02/16 02:40:10;;;;;;;;;;;;;;;4.41;62.36;97476.59;5009536;28;19925;-74
2022/02/16 02:42:41;;;;;;;;;;;;;;;4.26;63.55;97474.00;5028503;28;20007;-73
2022/02/16 02:45:11;;;;;;;;;;;;;;;4.45;62.50;97472.25;5026404;28;19932;-73
2022/02/16 02:47:41;;;;;;;;;;;;;;;4.56;61.90;97459.50;5007682;28;19988;-73
2022/02/16 02:50:10;;;;;;;;;;;;;;;4.75;60.77;97454.22;5024818;28;19925;-73
2022/02/16 02:52:42;;;;;;;;;;;;;;;4.85;61.30;97459.50;5011067;28;19931;-72
2022/02/16 02:55:11;;;;;;;;;;;;;;;4.72;61.97;97451.00;5028826;28;19936;-73
2022/02/16 02:57:43;;;;;;;;;;;;;;;4.72;61.67;97444.81;5017968;28;19933;-74
2022/02/16 03:00:15;;;;;;;;;;;;;;;4.62;62.62;97444.91;5025478;28;19925;-73
2022/02/16 03:02:47;;;;;;;;;;;;;;;4.63;62.20;97444.63;5028425;28;19925;-73
2022/02/16 03:05:17;;;;;;;;;;;;;;;4.52;62.58;97442.31;5030050;28;19925;-73
2022/02/16 03:07:46;;;;;;;;;;;;;;;4.48;63.28;97434.03;5028264;28;19947;-73
2022/02/16 03:10:15;;;;;;;;;;;;;;;4.55;61.81;97431.81;5013273;28;19972;-73
2022/02/16 03:12:44;;;;;;;;;;;;;;;4.57;61.95;97432.31;5031607;28;20226;-73
2022/02/16 03:15:16;;;;;;;;;;;;;;;4.66;61.76;97419.84;5027093;28;19929;-73
2022/02/16 03:17:47;;;;;;;;;;;;;;;4.56;62.29;97430.72;5050658;28;20264;-73
2022/02/16 03:20:18;;;;;;;;;;;;;;;4.60;62.29;97420.19;5046773;28;20034;-74
2022/02/16 03:22:49;;;;;;;;;;;;;;;4.62;62.46;97424.19;5032929;28;19925;-75
2022/02/16 03:25:19;;;;;;;;;;;;;;;4.64;62.15;97416.66;5036182;28;19941;-73
2022/02/16 03:27:48;;;;;;;;;;;;;;;4.63;63.09;97415.03;5036985;28;20012;-73
2022/02/16 03:30:18;;;;;;;;;;;;;;;4.59;62.87;97408.63;5010002;28;20048;-72
2022/02/16 03:32:54;;;;;;;;;;;;;;;4.62;62.64;97404.56;5032154;28;19925;-73
2022/02/16 03:35:22;;;;;;;;;;;;;;;4.87;60.86;97409.69;5010574;28;19969;-73
2022/02/16 03:37:53;;;;;;;;;;;;;;;4.82;61.54;97398.97;5009395;28;20392;-75
2022/02/16 03:40:22;;;;;;;;;;;;;;;4.71;62.25;97402.88;5044208;28;19929;-73
2022/02/16 03:42:50;;;;;;;;;;;;;;;4.76;61.73;97400.13;5025277;28;19947;-73
2022/02/16 03:45:43;;;;;;;;;;;;;;;4.78;61.68;97399.81;5024112;28;19925;-73
2022/02/16 03:48:12;;;;;;;;;;;;;;;4.69;63.33;97392.41;5026797;28;20260;-72
2022/02/16 03:50:40;;;;;;;;;;;;;;;4.65;62.63;97394.03;5013195;28;19964;-73
2022/02/16 03:53:11;;;;;;;;;;;;;;;4.84;62.06;97393.28;5042280;28;20237;-73
2022/02/16 03:58:40;;;;;;;;;;;;;;;4.93;60.65;97386.19;5037583;28;20337;-73
2022/02/16 04:01:11;;;;;;;;;;;;;;;4.87;61.45;97392.72;5040232;28;20012;-73
2022/02/16 04:03:39;;;;;;;;;;;;;;;4.87;61.96;97390.84;5021703;28;19925;-73
2022/02/16 04:06:08;;;;;;;;;;;;;;;4.97;60.76;97392.63;5011314;28;19948;-73
2022/02/16 04:08:38;;;;;;;;;;;;;;;4.92;61.35;97388.09;5021513;28;20277;-72
2022/02/16 04:11:07;;;;;;;;;;;;;;;4.80;61.79;97381.53;5041054;28;19933;-72
2022/02/16 04:13:38;;;;;;;;;;;;;;;4.79;63.07;97387.97;5033371;28;19989;-73
2022/02/16 04:16:07;;;;;;;;;;;;;;;4.83;62.69;97383.63;5022245;28;20554;-73
2022/02/16 04:18:35;;;;;;;;;;;;;;;4.97;60.70;97379.16;5026725;28;19936;-74
2022/02/16 04:21:06;;;;;;;;;;;;;;;4.73;62.13;97382.63;5026790;28;20035;-74
2022/02/16 04:23:45;;;;;;;;;;;;;;;4.72;62.67;97381.03;5042957;28;19941;-73
2022/02/16 04:26:14;;;;;;;;;;;;;;;4.77;62.57;97376.69;5026091;28;19924;-75
2022/02/16 04:28:49;;;;;;;;;;;;;;;4.90;61.16;97365.22;5026337;28;21000;-73
2022/02/16 04:31:22;;;;;;;;;;;;;;;4.72;62.99;97369.47;5018902;28;20271;-73
2022/02/16 04:33:53;;;;;;;;;;;;;;;4.78;63.28;97368.31;5010847;28;19969;-72
2022/02/16 04:36:26;;;;;;;;;;;;;;;4.63;63.29;97361.22;5012157;28;20398;-73
2022/02/16 04:39:01;;;;;;;;;;;;;;;4.80;63.52;97360.00;5013293;28;19952;-74
2022/02/16 04:41:41;;;;;;;;;;;;;;;4.89;62.83;97353.66;5028995;28;20355;-74
2022/02/16 04:44:15;;;;;;;;;;;;;;;4.70;64.09;97348.25;5013854;28;19944;-73
2022/02/16 04:46:54;;;;;;;;;;;;;;;4.79;63.89;97337.63;5008803;28;19925;-74
2022/02/16 04:49:25;;;;;;;;;;;;;;;4.92;62.92;97331.56;5011353;28;19933;-73
2022/02/16 04:51:53;;;;;;;;;;;;;;;4.70;64.32;97334.78;5010705;28;19955;-73
2022/02/16 04:54:25;;;;;;;;;;;;;;;4.71;63.79;97324.84;5027188;28;19933;-74
2022/02/16 04:56:55;;;;;;;;;;;;;;;4.76;63.39;97332.84;5041335;28;19926;-73
2022/02/16 04:59:29;;;;;;;;;;;;;;;4.87;61.64;97318.16;5027415;28;19929;-73
2022/02/16 05:01:58;;;;;;;;;;;;;;;4.92;62.28;97322.69;5009330;28;19968;-74
2022/02/16 05:04:27;;;;;;;;;;;;;;;4.83;62.59;97321.72;5020022;28;20374;-72
2022/02/16 05:06:57;;;;;;;;;;;;;;;4.88;63.29;97321.66;5008661;28;19937;-73
2022/02/16 05:09:28;;;;;;;;;;;;;;;4.90;62.72;97332.94;5009746;28;19925;-73
2022/02/16 05:11:58;;;;;;;;;;;;;;;4.93;62.47;97317.00;5024720;28;19932;-73
2022/02/16 05:14:27;;;;;;;;;;;;;;;4.91;62.19;97319.19;5019542;28;20302;-73
2022/02/16 05:16:58;;;;;;;;;;;;;;;4.73;63.68;97315.38;5022487;28;19987;-73
2022/02/16 05:19:27;;;;;;;;;;;;;;;4.79;63.95;97312.63;5023399;28;19948;-73
2022/02/16 05:21:57;;;;;;;;;;;;;;;4.76;63.46;97313.22;5010500;28;20594;-72
2022/02/16 05:24:33;;;;;;;;;;;;;;;4.94;62.54;97307.03;5010448;28;19947;-73
2022/02/16 05:27:01;;;;;;;;;;;;;;;4.93;62.70;97306.25;5024221;28;19960;-73
2022/02/16 05:29:30;;;;;;;;;;;;;;;4.85;64.08;97303.41;5026918;28;19941;-73
2022/02/16 05:32:12;;;;;;;;;;;;;;;4.79;64.58;97302.66;5002257;28;19957;-72
2022/02/16 05:34:41;;;;;;;;;;;;;;;4.97;62.73;97295.72;5004140;28;19956;-73
2022/02/16 05:37:09;;;;;;;;;;;;;;;4.91;63.61;97288.78;5009777;28;19925;-72
2022/02/16 05:39:39;;;;;;;;;;;;;;;4.78;64.05;97294.88;5004700;28;19944;-72
2022/02/16 05:42:08;;;;;;;;;;;;;;;4.87;64.46;97293.16;5008133;28;20273;-72
2022/02/16 05:44:42;;;;;;;;;;;;;;;4.89;64.38;97299.03;5008283;28;20019;-72
2022/02/16 05:47:11;;;;;;;;;;;;;;;4.83;64.05;97284.03;5019092;28;20024;-70
2022/02/16 05:49:39;;;;;;;;;;;;;;;4.73;64.60;97290.34;5026355;28;19925;-70
2022/02/16 05:52:08;;;;;;;;;;;;;;;4.83;64.92;97274.06;5026116;28;19932;-70
2022/02/16 05:54:38;;;;;;;;;;;;;;;4.70;65.30;97280.97;5025439;28;19983;-70
2022/02/16 05:57:08;;;;;;;;;;;;;;;4.68;65.77;97276.97;5001533;28;20410;-70
2022/02/16 05:59:39;;;;;;;;;;;;;;;4.76;65.71;97267.47;5020021;28;19929;-70
2022/02/16 06:02:14;;;;;;;;;;;;;;;4.78;66.03;97260.69;5016272;28;19933;-71
2022/02/16 06:04:43;;;;;;;;;;;;;;;4.87;64.24;97250.88;5024610;28;19925;-73
2022/02/16 06:07:11;;;;;;;;;;;;;;;4.78;65.85;97257.19;5006879;28;19925;-74
2022/02/16 06:09:41;;;;;;;;;;;;;;;4.78;66.14;97251.81;5023284;28;20005;-75
2022/02/16 06:12:10;;;;;;;;;;;;;;;4.96;65.63;97251.84;5020291;28;19929;-74
2022/02/16 06:14:39;;;;;;;;;;;;;;;4.91;65.80;97256.50;5026126;28;19936;-74
2022/02/16 06:17:10;;;;;;;;;;;;;;;4.79;66.52;97245.34;5024166;28;19955;-72
2022/02/16 06:19:38;;;;;;;;;;;;;;;4.89;65.36;97237.13;5029021;28;20355;-74
2022/02/16 06:22:08;;;;;;;;;;;;;;;4.75;67.23;97244.34;5031227;28;20058;-71
2022/02/16 06:24:37;;;;;;;;;;;;;;;4.77;66.47;97226.81;5028616;28;19940;-70
2022/02/16 06:27:11;;;;;;;;;;;;;;;4.88;65.37;97211.31;5009909;28;19925;-72
2022/02/16 06:29:40;;;;;;;;;;;;;;;4.95;66.11;97209.03;5028696;28;19925;-72
2022/02/16 06:32:33;;;;;;;;;;;;;;;4.78;66.05;97217.63;5045007;28;19943;-76
2022/02/16 06:35:04;;;;;;;;;;;;;;;4.77;66.86;97207.97;5023288;28;20409;-71
2022/02/16 06:37:33;;;;;;;;;;;;;;;4.85;67.28;97211.91;5029780;28;20294;-72
2022/02/16 06:40:02;;;;;;;;;;;;;;;4.79;67.00;97229.19;5022609;28;19984;-72
2022/02/16 06:42:32;;;;;;;;;;;;;;;4.86;66.83;97219.69;5014008;28;20115;-72
2022/02/16 06:45:01;;;;;;;;;;;;;;;4.91;66.45;97221.50;5013885;28;19929;-71
2022/02/16 06:48:04;;;;;;;;;;;;;;;5.09;65.96;97222.56;5029470;28;19931;-72
2022/02/16 06:50:33;;;;;;;;;;;;;;;4.98;65.35;97216.53;5029233;28;21379;-72
2022/02/16 06:53:08;;;;;;;;;;;;;;;4.69;67.09;97220.19;5023594;28;19933;-73
2022/02/16 06:55:38;;;;;;;;;;;;;;;4.80;66.78;97209.28;5027601;28;19934;-72
2022/02/16 06:58:33;;;;;;;;;;;;;;;4.82;66.48;97201.72;5047328;28;19940;-72
2022/02/16 07:01:04;;;;;;;;;;;;;;;4.79;67.24;97210.34;5009636;28;20047;-72
2022/02/16 07:03:33;;;;;;;;;;;;;;;4.91;66.29;97208.03;5030764;28;19961;-72
2022/02/16 07:06:12;;;;;;;;;;;;;;;4.90;66.53;97198.34;5033873;28;19931;-73
2022/02/16 07:08:41;;;;;;;;;;;;;;;5.03;65.65;97186.06;5016076;28;19932;-72
2022/02/16 07:11:10;;;;;;;;;;;;;;;5.09;65.25;97195.66;5031894;28;20016;-72
2022/02/16 07:13:39;;;;;;;;;;;;;;;5.00;66.29;97192.81;5028944;28;19932;-72
2022/02/16 07:16:09;;;;;;;;;;;;;;;4.98;67.00;97189.63;5029306;28;19933;-71
2022/02/16 07:18:40;;;;;;;;;;;;;;;5.14;65.14;97179.41;5030916;28;19924;-70
2022/02/16 07:21:24;;;;;;;;;;;;;;;4.97;65.30;97196.09;5024186;28;19936;-72
2022/02/16 07:23:54;;;;;;;;;;;;;;;5.06;65.51;97169.31;5033700;28;19931;-72
2022/02/16 07:26:25;;;;;;;;;;;;;;;5.12;65.54;97173.53;5029951;28;19925;-72
2022/02/16 07:28:55;;;;;;;;;;;;;;;5.17;65.67;97178.84;5030920;28;19929;-72
2022/02/16 07:31:27;;;;;;;;;;;;;;;5.19;65.56;97169.38;5026014;28;21414;-71
2022/02/16 07:33:56;;;;;;;;;;;;;;;5.25;65.22;97149.34;5029980;28;20375;-72
2022/02/16 07:36:26;;;;;;;;;;;;;;;5.30;64.38;97169.19;5028979;28;19960;-71
2022/02/16 07:38:57;;;;;;;;;;;;;;;5.39;64.56;97145.88;5046159;28;19929;-72
2022/02/16 07:44:35;;;;;;;;;;;;;;;5.41;64.79;97122.94;5043078;28;19929;-72
2022/02/16 07:47:09;;;;;;;;;;;;;;;5.32;65.16;97146.25;5010125;28;19925;-72
2022/02/16 07:49:38;;;;;;;;;;;;;;;5.47;64.17;97137.09;5031557;28;19931;-71
2022/02/16 07:52:37;;;;;;;;;;;;;;;5.38;65.21;97134.31;5033170;28;20029;-72
2022/02/16 07:55:17;;;;;;;;;;;;;;;5.43;63.77;97131.53;5033609;28;19936;-72
2022/02/16 08:01:07;;;;;;;;;;;;;;;5.50;64.68;97120.38;5030625;28;20355;-72
2022/02/16 08:03:35;;;;;;;;;;;;;;;5.32;63.80;97123.91;5045834;28;19924;-72
2022/02/16 08:06:04;;;;;;;;;;;;;;;5.57;63.94;97115.38;5030893;28;20378;-71
2022/02/16 08:08:32;;;;;;;;;;;;;;;5.67;63.84;97098.22;5029484;28;19925;-72
2022/02/16 08:11:07;;;;;;;;;;;;;;;5.66;64.08;97112.78;5044152;28;19932;-72
2022/02/16 08:13:36;;;;;;;;;;;;;;;5.84;62.90;97111.09;5046459;28;19928;-72
2022/02/16 08:16:17;;;;;;;;;;;;;;;5.86;62.96;97116.97;5027536;28;19933;-72
2022/02/16 08:18:57;;;;;;;;;;;;;;;5.74;63.31;97112.09;5034399;28;19972;-72
2022/02/16 08:21:26;;;;;;;;;;;;;;;5.77;63.92;97098.81;5029691;28;19925;-72
2022/02/16 08:23:58;;;;;;;;;;;;;;;5.83;62.92;97102.22;5046712;28;20041;-72
2022/02/16 08:26:27;;;;;;;;;;;;;;;5.96;62.25;97089.84;5023645;28;19924;-71
2022/02/16 08:28:55;;;;;;;;;;;;;;;5.94;62.51;97078.56;5030431;28;19924;-72
2022/02/16 08:31:27;;;;;;;;;;;;;;;5.92;63.94;97086.16;5031078;28;19925;-72
2022/02/16 08:34:12;;;;;;;;;;;;;;;6.04;63.29;97075.66;5031865;28;19932;-72
2022/02/16 08:37:00;;;;;;;;;;;;;;;6.22;61.95;97082.81;5048405;28;20361;-72
2022/02/16 08:39:29;;;;;;;;;;;;;;;6.12;61.82;97083.03;5030473;28;19933;-72
2022/02/16 08:41:57;;;;;;;;;;;;;;;6.00;62.96;97070.06;5034743;28;20051;-72
2022/02/16 08:44:25;;;;;;;;;;;;;;;6.02;62.97;97077.88;5048177;28;19925;-72
2022/02/16 08:46:54;;;;;;;;;;;;;;;6.12;62.11;97064.16;5010952;28;19929;-72
2022/02/16 08:49:23;;;;;;;;;;;;;;;6.13;62.59;97046.91;5016001;28;19933;-74
2022/02/16 08:51:52;;;;;;;;;;;;;;;6.16;62.88;97040.06;5051010;28;19932;-72
2022/02/16 08:54:20;;;;;;;;;;;;;;;6.30;61.92;97038.94;5052683;28;19929;-72
2022/02/16 08:56:49;;;;;;;;;;;;;;;6.45;62.17;97042.41;5019394;28;20023;-72
2022/02/16 08:59:18;;;;;;;;;;;;;;;6.57;61.79;97056.13;5052129;28;19947;-73
2022/02/16 09:01:47;;;;;;;;;;;;;;;6.68;61.13;97035.91;5040981;28;20026;-72
2022/02/16 09:04:17;;;;;;;;;;;;;;;6.57;60.92;97048.03;5034089;28;19960;-71
2022/02/16 09:09:40;;;;;;;;;;;;;;;6.83;61.46;97024.72;5049227;28;20002;-72
2022/02/16 09:12:10;;;;;;;;;;;;;;;6.83;60.62;97018.53;5045161;28;19951;-71
2022/02/16 09:14:38;;;;;;;;;;;;;;;6.93;60.51;97020.19;5014754;28;20001;-72
2022/02/16 09:17:06;;;;;;;;;;;;;;;6.81;61.32;97013.41;5043278;28;19951;-72
2022/02/16 09:19:35;;;;;;;;;;;;;;;6.86;60.66;97014.41;5027847;28;19952;-71
2022/02/16 09:22:05;;;;;;;;;;;;;;;6.76;60.88;97012.75;5029045;28;20434;-71
2022/02/16 09:24:34;;;;;;;;;;;;;;;6.72;61.56;97003.69;5029530;28;20401;-71
2022/02/16 09:27:02;;;;;;;;;;;;;;;6.78;61.42;97007.88;5028650;28;19983;-72
2022/02/16 09:29:30;;;;;;;;;;;;;;;6.86;61.01;96999.00;5046360;28;19928;-72
2022/02/16 09:31:59;;;;;;;;;;;;;;;6.92;60.55;97003.16;5023894;28;19924;-71
2022/02/16 09:34:27;;;;;;;;;;;;;;;6.99;59.84;97002.75;5029516;28;19924;-71
2022/02/16 09:36:57;;;;;;;;;;;;;;;6.86;60.86;97004.41;5044804;28;19925;-70
2022/02/16 09:39:26;;;;;;;;;;;;;;;6.95;60.81;96997.16;5025139;28;19928;-72
2022/02/16 09:41:55;;;;;;;;;;;;;;;6.90;61.55;96993.78;5048329;28;19924;-72
2022/02/16 09:44:26;;;;;;;;;;;;;;;7.07;61.64;97000.06;5048066;28;20377;-72
2022/02/16 09:46:55;;;;;;;;;;;;;;;7.10;60.51;96985.16;5044926;28;19960;-72
2022/02/16 09:49:24;;;;;;;;;;;;;;;7.15;61.34;96989.63;5008427;28;19928;-72
2022/02/16 09:51:52;;;;;;;;;;;;;;;7.22;61.79;96993.47;5045002;28;20028;-72
2022/02/16 09:54:21;;;;;;;;;;;;;;;7.25;60.66;96992.84;5033594;28;20243;-72
2022/02/16 09:56:49;;;;;;;;;;;;;;;7.41;60.78;96987.03;5013183;28;19978;-72
2022/02/16 09:59:19;;;;;;;;;;;;;;;7.27;61.48;96977.13;5028580;28;21456;-72
2022/02/16 10:01:56;;;;;;;;;;;;;;;7.26;60.73;96983.63;5043359;28;19967;-72
2022/02/16 10:04:25;;;;;;;;;;;;;;;7.23;61.33;96975.34;5032060;28;19960;-72
2022/02/16 10:06:54;;;;;;;;;;;;;;;7.26;61.49;96980.94;5023331;28;20454;-72
2022/02/16 10:09:27;;;;;;;;;;;;;;;7.33;61.61;96981.28;5048934;28;19936;-72
2022/02/16 10:11:57;;;;;;;;;;;;;;;7.31;62.34;96972.69;5045540;28;19925;-72
2022/02/16 10:14:27;;;;;;;;;;;;;;;7.31;61.89;96982.69;5031052;28;20033;-72
2022/02/16 10:16:55;;;;;;;;;;;;;;;7.23;62.49;96980.75;5025543;28;19944;-73
2022/02/16 10:19:22;;;;;;;;;;;;;;;7.18;63.38;96973.56;5030205;28;19925;-72
2022/02/16 10:22:00;;;;;;;;;;;;;;;7.22;63.25;96979.16;5000778;28;19932;-72
2022/02/16 10:24:29;;;;;;;;;;;;;;;7.32;63.16;96966.16;5013852;28;20042;-74
2022/02/16 10:27:00;;;;;;;;;;;;;;;7.42;62.90;96959.69;5049411;28;20031;-72
2022/02/16 10:29:54;;;;;;;;;;;;;;;7.41;64.17;96968.91;5049873;28;19959;-71
2022/02/16 10:32:27;;;;;;;;;;;;;;;7.48;62.84;96958.44;5047348;28;19940;-70
2022/02/16 10:34:56;;;;;;;;;;;;;;;7.59;62.93;96956.22;5032515;28;19940;-72
2022/02/16 10:37:29;;;;;;;;;;;;;;;7.63;63.34;96957.19;5025445;28;19940;-72
2022/02/16 10:40:10;;;;;;;;;;;;;;;7.57;63.34;96953.06;5046066;28;19924;-72
2022/02/16 10:42:39;;;;;;;;;;;;;;;7.52;63.87;96948.59;5048898;28;19972;-73
2022/02/16 10:45:09;;;;;;;;;;;;;;;7.52;62.44;96951.28;5043431;28;20371;-71
2022/02/16 10:47:52;;;;;;;;;;;;;;;7.59;62.88;96950.81;5047064;28;20237;-73
2022/02/16 10:50:21;;;;;;;;;;;;;;;7.73;62.51;96946.09;5042076;28;19924;-72
2022/02/16 10:52:49;;;;;;;;;;;;;;;7.65;63.00;96944.16;5048035;28;19936;-73
2022/02/16 10:55:19;;;;;;;;;;;;;;;7.81;62.63;96944.50;5042194;28;20009;-72
2022/02/16 10:57:47;;;;;;;;;;;;;;;7.92;62.14;96926.03;5045080;28;20015;-72
2022/02/16 11:00:16;;;;;;;;;;;;;;;7.81;62.57;96920.94;5027605;28;19935;-72
2022/02/16 11:02:45;;;;;;;;;;;;;;;7.90;63.08;96929.06;5030090;28;19925;-71
2022/02/16 11:05:13;;;;;;;;;;;;;;;7.86;63.18;96923.50;5051647;28;19925;-72
2022/02/16 11:07:41;;;;;;;;;;;;;;;7.86;63.86;96904.56;5049150;28;19925;-71
2022/02/16 11:10:10;;;;;;;;;;;;;;;7.89;63.55;96911.28;5033175;28;19944;-70
2022/02/16 11:12:39;;;;;;;;;;;;;;;8.00;63.30;96907.13;5013724;28;19928;-72
2022/02/16 11:15:09;;;;;;;;;;;;;;;7.88;63.82;96904.25;5048163;28;19925;-73
2022/02/16 11:17:38;;;;;;;;;;;;;;;7.91;63.79;96889.31;5045273;28;20003;-72
2022/02/16 11:20:31;;;;;;;;;;;;;;;8.10;62.85;96887.06;5024032;28;20430;-72
2022/02/16 11:23:01;;;;;;;;;;;;;;;8.00;63.48;96879.28;5029744;28;19959;-71
2022/02/16 11:25:32;;;;;;;;;;;;;;;8.00;63.86;96871.97;5035421;28;19925;-71
2022/02/16 11:28:03;;;;;;;;;;;;;;;8.13;62.54;96872.91;5047733;28;20370;-71
2022/02/16 11:30:32;;;;;;;;;;;;;;;8.01;62.53;96870.84;5024700;28;19929;-71
2022/02/16 11:33:14;;;;;;;;;;;;;;;8.11;62.70;96858.91;5051730;28;19990;-71
2022/02/16 11:35:50;;;;;;;;;;;;;;;8.28;62.96;96863.47;5043255;28;20337;-72
2022/02/16 11:38:20;;;;;;;;;;;;;;;8.16;62.15;96858.75;5045909;28;20039;-71
2022/02/16 11:40:51;;;;;;;;;;;;;;;8.31;62.17;96855.53;5028566;28;19925;-71
2022/02/16 11:43:23;;;;;;;;;;;;;;;8.32;62.82;96856.31;5033114;28;20006;-72
2022/02/16 11:45:54;;;;;;;;;;;;;;;8.24;63.41;96852.50;5011142;28;19925;-72
2022/02/16 11:48:42;;;;;;;;;;;;;;;8.31;63.17;96847.41;5044451;28;19924;-72
2022/02/16 11:51:33;;;;;;;;;;;;;;;8.38;63.78;96842.31;5038227;28;19974;-72
2022/02/16 11:54:20;;;;;;;;;;;;;;;8.43;62.90;96851.38;5041276;28;19925;-72
2022/02/16 11:56:49;;;;;;;;;;;;;;;8.38;63.56;96845.03;5030455;28;19957;-72
2022/02/16 11:59:20;;;;;;;;;;;;;;;8.53;63.13;96838.31;5023550;28;20074;-71
2022/02/16 12:02:07;;;;;;;;;;;;;;;8.55;63.35;96835.25;5029129;28;20355;-71
2022/02/16 12:04:47;;;;;;;;;;;;;;;8.51;64.08;96834.31;5039335;28;20278;-72
2022/02/16 12:07:22;;;;;;;;;;;;;;;8.39;64.42;96835.78;5022923;28;19924;-71
2022/02/16 12:10:05;;;;;;;;;;;;;;;8.37;66.00;96831.81;5042623;28;20378;-72
2022/02/16 12:13:01;;;;;;;;;;;;;;;8.40;65.56;96845.47;5046785;28;20705;-72
2022/02/16 12:15:44;;;;;;;;;;;;;;;8.41;66.37;96832.75;5039406;28;20011;-72
2022/02/16 12:18:13;;;;;;;;;;;;;;;8.35;66.83;96825.88;5024882;28;19971;-72
2022/02/16 12:20:47;;;;;;;;;;;;;;;8.25;66.79;96832.44;5043491;28;19925;-72
2022/02/16 12:23:15;;;;;;;;;;;;;;;8.23;67.48;96828.47;5046425;28;19966;-71
2022/02/16 12:25:43;;;;;;;;;;;;;;;8.23;67.24;96823.88;5024424;28;20031;-71
2022/02/16 12:28:11;;;;;;;;;;;;;;;8.17;68.06;96808.13;5044182;28;19924;-71
2022/02/16 12:30:42;;;;;;;;;;;;;;;7.78;69.36;96802.63;5001921;28;19933;-71
2022/02/16 12:33:32;;;;;;;;;;;;;;;7.87;69.15;96792.59;5015288;28;19932;-71
2022/02/16 12:36:25;;;;;;;;;;;;;;;7.96;69.52;96786.38;5031619;28;19924;-72
2022/02/16 12:38:54;;;;;;;;;;;;;;;8.02;69.13;96780.47;5029831;28;19941;-72
2022/02/16 12:41:24;;;;;;;;;;;;;;;7.93;68.85;96784.31;5044821;28;19933;-71
2022/02/16 12:43:54;;;;;;;;;;;;;;;8.04;68.84;96805.31;5044302;28;20564;-71
2022/02/16 12:46:23;;;;;;;;;;;;;;;7.92;69.55;96788.13;5004510;28;19925;-72
2022/02/16 12:48:53;;;;;;;;;;;;;;;8.00;69.17;96779.22;5041279;28;19924;-72
2022/02/16 12:51:22;;;;;;;;;;;;;;;8.04;68.77;96772.03;5045087;28;20378;-72
2022/02/16 12:53:52;;;;;;;;;;;;;;;7.94;70.06;96778.59;5029732;28;19952;-72
2022/02/16 12:56:21;;;;;;;;;;;;;;;8.10;69.19;96755.31;5028442;28;19928;-71
2022/02/16 12:58:50;;;;;;;;;;;;;;;8.27;68.82;96749.03;5049558;28;20371;-72
2022/02/16 13:01:18;;;;;;;;;;;;;;;8.17;68.50;96745.91;5043611;28;20355;-71
2022/02/16 13:03:47;;;;;;;;;;;;;;;8.21;69.45;96753.06;5048720;28;19936;-71
2022/02/16 13:06:18;;;;;;;;;;;;;;;8.26;68.76;96746.69;5049381;28;20085;-71
2022/02/16 13:08:46;;;;;;;;;;;;;;;8.23;68.87;96741.91;5022057;28;19933;-72
2022/02/16 13:11:14;;;;;;;;;;;;;;;8.21;68.59;96739.53;5046419;28;19932;-72
2022/02/16 13:13:44;;;;;;;;;;;;;;;8.10;69.92;96741.78;5048660;28;19925;-71
2022/02/16 13:16:19;;;;;;;;;;;;;;;7.98;69.80;96740.84;5042555;28;19931;-71
2022/02/16 13:18:53;;;;;;;;;;;;;;;8.10;69.66;96728.25;5015934;28;20384;-73
2022/02/16 13:21:23;;;;;;;;;;;;;;;8.18;69.53;96729.34;5029768;28;19936;-73
2022/02/16 13:23:52;;;;;;;;;;;;;;;8.36;68.56;96714.66;5047899;28;20344;-72
2022/02/16 13:26:21;;;;;;;;;;;;;;;8.14;69.85;96723.78;5047677;28;19944;-74
2022/02/16 13:28:50;;;;;;;;;;;;;;;8.24;69.59;96709.09;5036588;28;20004;-72
2022/02/16 13:31:18;;;;;;;;;;;;;;;8.22;68.69;96708.63;5024913;28;19932;-72
2022/02/16 13:33:57;;;;;;;;;;;;;;;8.25;69.24;96731.53;5044662;28;20363;-72
2022/02/16 13:36:31;;;;;;;;;;;;;;;8.14;70.32;96729.19;5027678;28;19925;-72
2022/02/16 13:39:09;;;;;;;;;;;;;;;8.12;70.01;96711.72;5046801;28;19925;-72